Time;durP1;ratioP1;P1;durP2;ratioP2;P2;SDS_P1;SDS_P2;PMS_P1;PMS_P2;Temp;Humidity;BMP_temperature;BMP_pressure;BME280_temperature;BME280_humidity;BME280_pressure;Samples;Min_cycle;Max_cycle;Signal;HPM_P1;HPM_P2
2021/06/04 03:41:27;;;;;;;6.78;4.90;;;;;;;13.99;64.58;99945.86;1806092;78;22640;-40
2021/06/04 03:43:56;;;;;;;7.20;5.03;;;;;;;14.06;64.55;99945.97;1756860;81;20996;-39
2021/06/04 03:46:24;;;;;;;6.15;4.37;;;;;;;14.23;63.97;99944.05;1756897;81;21991;-40
2021/06/04 03:48:51;;;;;;;8.10;4.40;;;;;;;14.43;63.74;99938.48;1758286;80;21016;-41
2021/06/04 03:51:23;;;;;;;10.88;4.80;;;;;;;14.60;63.34;99935.20;1774318;80;21584;-41
2021/06/04 03:53:49;;;;;;;7.40;4.53;;;;;;;14.76;63.03;99931.09;1746195;82;20985;-40
2021/06/04 03:56:17;;;;;;;9.75;4.95;;;;;;;14.95;62.60;99938.91;1774796;80;20984;-41
2021/06/04 03:58:45;;;;;;;6.83;4.80;;;;;;;15.08;62.33;99928.70;1746342;82;21141;-41
2021/06/04 04:01:17;;;;;;;7.15;4.97;;;;;;;15.26;61.87;99933.54;1746444;82;21834;-42
2021/06/04 04:03:44;;;;;;;8.95;4.60;;;;;;;15.37;61.53;99931.12;1746539;82;21627;-41
2021/06/04 04:06:12;;;;;;;5.20;4.60;;;;;;;15.49;61.26;99934.91;1787865;79;20933;-41
2021/06/04 04:08:39;;;;;;;8.20;4.28;;;;;;;15.60;61.08;99933.66;1788239;80;21049;-41
2021/06/04 04:11:07;;;;;;;6.25;4.83;;;;;;;15.69;60.88;99938.22;1769974;79;21130;-41
2021/06/04 04:13:34;;;;;;;6.85;4.58;;;;;;;15.80;60.76;99934.99;1784449;80;21623;-40
2021/06/04 04:16:01;;;;;;;7.72;4.67;;;;;;;15.89;60.58;99932.70;1788230;80;20990;-40
2021/06/04 04:18:28;;;;;;;5.78;4.53;;;;;;;15.97;60.52;99938.44;1788317;80;21137;-40
2021/06/04 04:21:00;;;;;;;6.12;4.80;;;;;;;16.06;60.39;99940.83;1787780;79;20961;-40
2021/06/04 04:23:32;;;;;;;6.35;4.65;;;;;;;16.12;60.32;99933.05;1757322;81;21098;-40
2021/06/04 04:25:59;;;;;;;6.83;4.08;;;;;;;16.20;60.16;99929.97;1755801;81;21005;-40
2021/06/04 04:28:30;;;;;;;10.15;5.10;;;;;;;16.31;59.71;99931.39;1756676;81;21055;-40
2021/06/04 04:30:58;;;;;;;5.95;4.42;;;;;;;16.42;59.82;99932.20;1756604;81;21043;-40
2021/06/04 04:33:26;;;;;;;8.68;4.80;;;;;;;16.50;59.31;99941.45;1779455;80;21091;-40
2021/06/04 04:35:54;;;;;;;5.62;4.72;;;;;;;16.56;59.06;99940.47;1782051;80;21073;-40
2021/06/04 04:38:21;;;;;;;6.37;4.78;;;;;;;16.62;58.71;99933.50;1781343;80;21039;-40
2021/06/04 04:40:58;;;;;;;6.45;4.22;;;;;;;16.69;58.27;99932.16;1773802;80;20966;-40
2021/06/04 04:43:22;;;;;;;7.65;4.17;;;;;;;16.76;57.58;99929.43;1772673;80;21043;-40
2021/06/04 04:45:49;;;;;;;6.42;4.53;;;;;;;16.79;57.38;99933.37;1773404;80;21041;-41
2021/06/04 04:48:16;;;;;;;7.42;3.95;;;;;;;16.84;57.05;99934.36;1771579;80;21134;-40
2021/06/04 04:50:44;;;;;;;6.62;4.40;;;;;;;16.91;56.80;99935.15;1771950;80;21000;-40
2021/06/04 04:53:11;;;;;;;9.53;4.50;;;;;;;16.98;56.53;99932.23;1758588;80;20946;-41
2021/06/04 04:55:40;;;;;;;6.10;4.00;;;;;;;17.06;56.84;99931.06;1758464;80;21005;-40
2021/06/04 04:58:07;;;;;;;6.53;4.17;;;;;;;17.14;56.37;99937.53;1737001;82;21006;-41
2021/06/04 05:00:35;;;;;;;7.33;4.05;;;;;;;17.22;56.37;99932.86;1735365;81;21090;-40
2021/06/04 05:03:02;;;;;;;10.48;4.40;;;;;;;17.28;55.75;99939.53;1763573;80;21081;-40
2021/06/04 05:05:30;;;;;;;7.30;4.50;;;;;;;17.33;55.18;99940.52;1774115;80;21637;-40
2021/06/04 05:07:57;;;;;;;6.62;4.37;;;;;;;17.34;54.84;99942.06;1772337;80;21031;-40
2021/06/04 05:10:24;;;;;;;9.23;4.40;;;;;;;17.37;55.40;99947.56;1761255;80;21053;-41
2021/06/04 05:12:51;;;;;;;4.70;3.95;;;;;;;17.45;55.30;99945.59;1766741;80;21142;-41
2021/06/04 05:15:22;;;;;;;8.10;4.17;;;;;;;17.53;55.24;99947.16;1766368;80;21663;-41
2021/06/04 05:17:49;;;;;;;6.72;4.08;;;;;;;17.62;54.97;99943.46;1771084;80;21081;-40
2021/06/04 05:20:17;;;;;;;5.75;3.95;;;;;;;17.74;54.61;99942.30;1773108;80;21033;-40
2021/06/04 05:22:43;;;;;;;7.80;4.12;;;;;;;17.85;54.13;99939.55;1770514;80;21084;-40
2021/06/04 05:25:14;;;;;;;5.87;4.03;;;;;;;17.95;53.16;99942.86;1772939;80;21104;-40
2021/06/04 05:27:41;;;;;;;5.78;3.87;;;;;;;18.06;52.35;99940.86;1773723;80;21518;-40
2021/06/04 05:30:13;;;;;;;9.63;3.98;;;;;;;18.18;52.11;99940.45;1769826;80;21558;-40
2021/06/04 05:32:39;;;;;;;7.72;3.98;;;;;;;18.29;51.43;99953.56;1771917;80;21554;-40
2021/06/04 05:35:08;;;;;;;8.40;4.22;;;;;;;18.39;51.73;99953.34;1772795;80;21530;-40
2021/06/04 05:37:35;;;;;;;8.08;3.98;;;;;;;18.47;51.28;99954.28;1768461;80;21123;-41
2021/06/04 05:40:10;;;;;;;8.73;4.50;;;;;;;18.53;50.53;99959.59;1770258;80;21619;-41
2021/06/04 05:42:37;;;;;;;12.85;3.98;;;;;;;18.60;51.07;99952.69;1786863;80;21565;-40
2021/06/04 05:45:06;;;;;;;7.40;3.72;;;;;;;18.64;51.23;99950.70;1778910;80;21043;-40
2021/06/04 05:47:34;;;;;;;9.85;3.90;;;;;;;18.71;51.06;99957.34;1787664;80;21031;-41
2021/06/04 05:50:01;;;;;;;8.58;3.80;;;;;;;18.79;51.16;99961.03;1786522;80;21114;-40
2021/06/04 05:52:28;;;;;;;10.10;3.60;;;;;;;18.87;51.45;99961.80;1781092;80;21036;-41
2021/06/04 05:54:58;;;;;;;9.05;3.65;;;;;;;18.97;49.43;99956.25;1780221;80;21559;-41
2021/06/04 05:57:24;;;;;;;7.05;3.75;;;;;;;19.12;49.52;99952.83;1777254;80;21038;-41
2021/06/04 05:59:52;;;;;;;7.30;3.77;;;;;;;19.28;48.45;99954.47;1777748;80;21017;-41
2021/06/04 06:02:20;;;;;;;6.57;3.13;;;;;;;19.44;48.62;99952.03;1777311;80;21156;-41
2021/06/04 06:04:48;;;;;;;8.63;3.75;;;;;;;19.60;46.64;99954.86;1775267;80;21145;-40
2021/06/04 06:07:15;;;;;;;6.47;3.10;;;;;;;19.71;46.55;99955.53;1777958;80;21053;-41
2021/06/04 06:09:42;;;;;;;5.25;3.10;;;;;;;19.80;45.45;99948.37;1775907;80;21029;-41
2021/06/04 06:12:12;;;;;;;5.58;2.67;;;;;;;19.87;44.14;99950.28;1777770;80;20987;-41
2021/06/04 06:14:39;;;;;;;6.92;2.70;;;;;;;19.92;44.25;99952.59;1782997;80;21120;-41
2021/06/04 06:17:06;;;;;;;5.15;3.20;;;;;;;19.97;43.46;99948.03;1781442;80;20980;-41
2021/06/04 06:19:33;;;;;;;5.08;2.77;;;;;;;20.02;42.76;99946.80;1783797;80;20988;-41
2021/06/04 06:22:00;;;;;;;4.70;2.95;;;;;;;20.08;42.95;99951.47;1779166;80;21680;-41
2021/06/04 06:24:27;;;;;;;6.42;2.95;;;;;;;20.13;41.79;99945.52;1779290;80;20987;-41
2021/06/04 06:26:54;;;;;;;6.70;2.67;;;;;;;20.15;42.03;99947.24;1755657;80;22493;-41
2021/06/04 06:29:21;;;;;;;6.12;2.67;;;;;;;20.18;41.43;99947.03;1776263;80;20997;-41
2021/06/04 06:31:48;;;;;;;7.65;2.90;;;;;;;20.23;41.94;99947.37;1782980;80;20937;-43
2021/06/04 06:34:15;;;;;;;7.08;3.10;;;;;;;20.29;41.50;99947.67;1769498;80;21650;-44
2021/06/04 06:36:43;;;;;;;5.72;2.85;;;;;;;20.33;41.95;99947.85;1750214;82;21005;-43
2021/06/04 06:39:17;;;;;;;6.75;2.62;;;;;;;20.38;41.40;99950.78;1763525;80;21110;-40
2021/06/04 06:41:45;;;;;;;6.65;2.65;;;;;;;20.43;41.24;99948.16;1774178;80;21044;-41
2021/06/04 06:44:12;;;;;;;5.50;2.58;;;;;;;20.48;41.00;99948.47;1765818;80;21088;-41
2021/06/04 06:46:40;;;;;;;5.72;2.60;;;;;;;20.52;41.28;99954.74;1774028;80;21518;-41
2021/06/04 06:49:07;;;;;;;4.92;2.47;;;;;;;20.58;40.45;99949.53;1773528;79;20992;-41
2021/06/04 06:51:35;;;;;;;4.22;2.40;;;;;;;20.63;40.42;99946.32;1773583;80;21124;-41
2021/06/04 06:54:07;;;;;;;4.67;2.25;;;;;;;20.74;40.26;99946.97;1746233;80;21649;-41
2021/06/04 06:56:34;;;;;;;4.08;2.50;;;;;;;20.83;39.42;99945.86;1732467;82;20947;-41
2021/06/04 06:59:01;;;;;;;5.50;2.15;;;;;;;20.92;37.41;99937.08;1732199;82;20982;-41
2021/06/04 07:01:28;;;;;;;6.60;2.50;;;;;;;20.99;37.81;99939.75;1732578;82;21041;-41
2021/06/04 07:03:55;;;;;;;7.42;2.60;;;;;;;21.08;38.04;99952.41;1769274;80;21538;-41
2021/06/04 07:06:26;;;;;;;3.98;2.62;;;;;;;21.17;37.91;99941.67;1764481;80;21529;-41
2021/06/04 07:08:54;;;;;;;7.25;2.72;;;;;;;21.24;38.12;99938.23;1773611;80;21037;-41
2021/06/04 07:11:24;;;;;;;6.10;2.58;;;;;;;21.34;38.50;99938.48;1751828;80;21579;-41
2021/06/04 07:13:52;;;;;;;4.97;2.22;;;;;;;21.45;36.10;99937.69;1744415;80;21029;-41
2021/06/04 07:16:19;;;;;;;5.58;2.55;;;;;;;21.52;37.04;99930.69;1741899;82;22182;-41
2021/06/04 07:18:50;;;;;;;4.78;2.25;;;;;;;21.59;33.56;99931.96;1750644;80;20972;-41
2021/06/04 07:21:16;;;;;;;6.65;2.62;;;;;;;21.70;34.58;99936.68;1762357;80;20989;-41
2021/06/04 07:23:43;;;;;;;5.08;2.37;;;;;;;21.76;34.94;99932.25;1766841;80;21510;-41
2021/06/04 07:26:11;;;;;;;2.70;2.00;;;;;;;21.86;34.14;99937.40;1764606;80;21026;-44
2021/06/04 07:28:38;;;;;;;5.22;2.55;;;;;;;21.95;34.21;99934.89;1762477;80;21843;-44
2021/06/04 07:31:08;;;;;;;4.33;2.37;;;;;;;22.02;33.88;99927.28;1770852;80;21151;-45
2021/06/04 07:33:41;;;;;;;;;;;;;;;22.14;33.76;99922.31;1759425;80;21798;-46
2021/06/04 07:36:13;;;;;;;10.18;2.75;;;;;;;22.18;33.54;99916.89;1756687;80;20152;-44
2021/06/04 07:38:40;;;;;;;5.60;2.55;;;;;;;22.10;33.30;99920.41;1756908;80;21048;-45
2021/06/04 07:41:07;;;;;;;6.37;2.35;;;;;;;22.05;34.31;99922.28;1759827;80;21075;-45
2021/06/04 07:43:35;;;;;;;5.33;2.52;;;;;;;22.03;34.71;99928.81;1770627;80;21019;-45
2021/06/04 07:46:05;;;;;;;6.85;2.98;;;;;;;21.99;35.09;99925.34;1769904;80;21030;-46
2021/06/04 07:48:34;;;;;;;7.30;2.30;;;;;;;22.00;34.45;99921.38;1768931;80;21002;-45
2021/06/04 07:51:01;;;;;;;3.75;2.10;;;;;;;21.96;34.87;99923.44;1773748;80;21099;-46
2021/06/04 07:53:30;;;;;;;5.05;1.90;;;;;;;21.94;35.50;99931.35;1765391;80;21123;-45
2021/06/04 07:55:57;;;;;;;3.65;2.17;;;;;;;21.99;35.68;99927.32;1772856;80;21494;-45
2021/06/04 07:58:26;;;;;;;7.80;2.25;;;;;;;22.12;35.31;99918.61;1771112;80;21032;-45
2021/06/04 08:00:53;;;;;;;6.20;2.10;;;;;;;22.28;34.70;99917.89;1772944;80;20969;-46
2021/06/04 08:03:23;;;;;;;10.05;3.02;;;;;;;22.49;34.08;99923.00;1762548;80;21073;-45
2021/06/04 08:05:50;;;;;;;9.40;2.65;;;;;;;22.65;34.78;99925.04;1768451;80;21177;-45
2021/06/04 08:08:17;;;;;;;4.72;2.50;;;;;;;22.87;35.21;99922.79;1767454;80;21016;-45
2021/06/04 08:10:44;;;;;;;5.67;2.20;;;;;;;23.03;34.25;99917.12;1767504;80;20976;-46
2021/06/04 08:13:15;;;;;;;4.95;2.08;;;;;;;23.08;34.12;99917.39;1765048;80;21080;-45
2021/06/04 08:15:49;;;;;;;4.50;2.15;;;;;;;23.02;33.29;99912.19;1767573;80;21511;-45
2021/06/04 08:18:19;;;;;;;9.25;2.58;;;;;;;22.96;34.05;99918.83;1762967;80;21160;-45
2021/06/04 08:20:47;;;;;;;4.92;2.10;;;;;;;23.05;34.71;99911.92;1775072;80;21039;-44
2021/06/04 08:23:18;;;;;;;5.40;2.27;;;;;;;23.17;34.24;99909.87;1779258;79;21015;-45
2021/06/04 08:25:48;;;;;;;6.47;2.45;;;;;;;23.20;34.23;99913.92;1773235;80;21367;-45
2021/06/04 08:28:17;;;;;;;6.70;2.50;;;;;;;23.15;34.10;99916.42;1771607;80;21021;-44
2021/06/04 08:30:45;;;;;;;6.05;2.45;;;;;;;23.09;34.28;99913.39;1765019;80;21106;-45
2021/06/04 08:33:12;;;;;;;4.85;2.30;;;;;;;23.09;35.01;99916.16;1767634;80;21044;-44
2021/06/04 08:35:38;;;;;;;2.87;1.72;;;;;;;23.14;35.30;99912.13;1768509;80;21008;-44
2021/06/04 08:38:05;;;;;;;10.40;2.58;;;;;;;23.24;35.12;99912.45;1770046;80;21036;-44
2021/06/04 08:40:35;;;;;;;6.72;1.90;;;;;;;23.26;33.88;99912.81;1766973;80;21041;-43
2021/06/04 08:43:29;;;;;;;5.17;2.08;;;;;;;23.24;33.33;99913.83;1768864;80;21519;-43
2021/06/04 08:46:24;;;;;;;4.35;2.00;;;;;;;23.15;33.51;99913.05;1767261;80;21008;-43
2021/06/04 08:49:29;;;;;;;3.95;2.12;;;;;;;22.98;33.22;99916.24;1767246;80;21033;-43
2021/06/04 08:52:18;;;;;;;3.67;1.92;;;;;;;22.88;33.26;99922.19;1769971;80;21432;-44
2021/06/04 08:55:03;;;;;;;5.05;1.85;;;;;;;22.81;33.91;99914.82;1767785;80;21586;-42
2021/06/04 08:57:52;;;;;;;6.10;1.87;;;;;;;22.77;33.69;99923.80;1767098;80;21146;-43
2021/06/04 09:00:39;;;;;;;8.83;2.20;;;;;;;22.63;32.77;99911.64;1763883;80;21091;-43
2021/06/04 09:03:11;;;;;;;5.58;3.10;;;;;;;22.53;32.74;99914.02;1773950;80;21020;-43
2021/06/04 09:05:45;;;;;;;5.72;2.30;;;;;;;22.49;33.45;99913.33;1768627;80;22237;-43
2021/06/04 09:08:19;;;;;;;7.00;2.72;;;;;;;22.48;33.14;99913.92;1748229;80;21081;-44
2021/06/04 09:11:01;;;;;;;5.47;2.60;;;;;;;22.47;33.28;99906.83;1770670;80;21114;-43
2021/06/04 09:13:37;;;;;;;4.85;2.58;;;;;;;22.49;33.66;99914.70;1769844;80;20997;-43
2021/06/04 09:16:12;;;;;;;8.48;3.00;;;;;;;22.53;33.96;99911.27;1770145;80;21081;-44
2021/06/04 09:19:19;;;;;;;4.80;2.67;;;;;;;22.55;33.32;99903.34;1770931;80;20968;-44
2021/06/04 09:21:45;;;;;;;8.63;2.45;;;;;;;22.55;33.27;99901.95;1772300;80;21061;-43
2021/06/04 09:24:19;;;;;;;3.80;2.67;;;;;;;22.51;31.92;99908.16;1701443;83;21544;-44
2021/06/04 09:26:47;;;;;;;8.93;2.42;;;;;;;22.48;32.08;99906.23;1745064;80;21881;-44
2021/06/04 09:29:18;;;;;;;8.35;3.17;;;;;;;22.52;32.58;99902.78;1766800;80;21062;-44
2021/06/04 09:31:50;;;;;;;6.10;2.27;;;;;;;22.65;33.06;99906.48;1767248;80;21028;-43
2021/06/04 09:34:24;;;;;;;7.12;2.02;;;;;;;22.84;33.03;99894.63;1769815;80;21295;-43
2021/06/04 09:37:08;;;;;;;6.97;2.00;;;;;;;23.02;31.92;99902.51;1768264;80;21132;-43
2021/06/04 09:39:42;;;;;;;6.25;2.05;;;;;;;23.12;32.40;99902.09;1772790;80;21441;-43
2021/06/04 09:42:26;;;;;;;5.97;2.17;;;;;;;23.10;31.29;99895.59;1763239;80;21526;-44
2021/06/04 09:45:07;;;;;;;5.22;1.98;;;;;;;23.02;31.45;99903.11;1767487;80;20993;-43
2021/06/04 09:47:39;;;;;;;7.15;1.80;;;;;;;22.95;32.94;99890.99;1765802;80;21033;-43
2021/06/04 09:50:33;;;;;;;4.40;2.00;;;;;;;23.07;32.22;99887.39;1765657;80;22020;-44
2021/06/04 09:53:13;;;;;;;2.60;1.67;;;;;;;23.21;32.19;99882.89;1768522;80;20969;-43
2021/06/04 09:55:50;;;;;;;3.85;1.82;;;;;;;23.41;32.04;99875.28;1766194;80;21511;-44
2021/06/04 09:58:24;;;;;;;6.12;2.10;;;;;;;23.57;31.12;99879.45;1765057;80;21011;-44
2021/06/04 10:01:04;;;;;;;3.30;2.10;;;;;;;23.61;31.67;99876.59;1767258;80;21084;-43
2021/06/04 10:03:52;;;;;;;7.22;2.20;;;;;;;23.64;32.21;99875.11;1762896;80;21186;-44
2021/06/04 10:06:29;;;;;;;9.38;2.10;;;;;;;23.64;32.36;99880.64;1766970;80;20965;-44
2021/06/04 10:09:01;;;;;;;4.62;2.02;;;;;;;23.56;31.66;99879.28;1762811;80;21021;-44
2021/06/04 10:11:41;;;;;;;4.37;1.80;;;;;;;23.49;31.49;99881.44;1767485;80;22066;-43
2021/06/04 10:14:49;;;;;;;6.65;2.17;;;;;;;23.51;31.82;99873.48;1769522;80;21534;-45
2021/06/04 10:17:42;;;;;;;4.28;2.05;;;;;;;23.72;31.18;99872.95;1696029;82;21094;-45
2021/06/04 10:20:25;;;;;;;4.60;2.00;;;;;;;24.01;30.77;99872.31;1766183;80;20946;-43
2021/06/04 10:23:08;;;;;;;3.60;2.00;;;;;;;24.30;29.53;99872.34;1752942;80;21019;-43
2021/06/04 10:25:43;;;;;;;4.72;2.02;;;;;;;24.55;30.60;99868.20;1766392;80;21037;-43
2021/06/04 10:28:39;;;;;;;3.77;1.95;;;;;;;24.85;30.51;99866.13;1748018;80;21049;-43
2021/06/04 10:31:19;;;;;;;5.53;1.90;;;;;;;25.06;29.79;99857.94;1746262;80;20930;-43
2021/06/04 10:34:03;;;;;;;4.25;1.80;;;;;;;25.13;29.24;99866.63;1744898;80;21012;-43
2021/06/04 10:36:36;;;;;;;3.98;1.90;;;;;;;25.01;28.34;99872.37;1743638;80;20991;-43
2021/06/04 10:39:09;;;;;;;6.17;1.98;;;;;;;24.77;29.47;99873.89;1767279;80;21554;-43
2021/06/04 10:42:15;;;;;;;3.90;1.80;;;;;;;24.62;29.67;99861.69;1766507;80;21638;-43
2021/06/04 10:45:07;;;;;;;5.25;1.90;;;;;;;24.54;29.45;99864.52;1715566;82;21929;-43
2021/06/04 10:48:12;;;;;;;6.55;2.10;;;;;;;24.46;29.12;99863.16;1731868;82;21622;-43
2021/06/04 10:50:47;;;;;;;5.60;1.95;;;;;;;24.39;29.83;99861.39;1746202;82;20913;-44
2021/06/04 10:53:22;;;;;;;3.58;1.80;;;;;;;24.32;29.31;99856.04;1728582;82;20980;-43
2021/06/04 10:56:10;;;;;;;6.80;2.25;;;;;;;24.22;28.94;99859.29;1716595;82;21043;-43
2021/06/04 10:59:16;;;;;;;4.33;2.08;;;;;;;24.12;29.87;99861.72;1741304;82;21064;-43
2021/06/04 11:02:05;;;;;;;4.10;1.70;;;;;;;24.09;30.01;99857.67;1741427;82;20977;-43
2021/06/04 11:04:50;;;;;;;8.88;2.02;;;;;;;24.02;28.79;99860.63;1724707;82;21047;-43
2021/06/04 11:08:02;;;;;;;7.70;2.02;;;;;;;24.12;29.34;99851.25;1711633;83;21049;-44
2021/06/04 11:10:36;;;;;;;9.50;2.47;;;;;;;24.47;30.34;99851.63;1720540;82;21097;-43
2021/06/04 11:13:38;;;;;;;8.35;2.20;;;;;;;25.00;30.00;99858.94;1721579;83;21002;-43
2021/06/04 11:16:26;;;;;;;4.12;1.77;;;;;;;25.29;28.84;99856.01;1721565;83;21090;-43
2021/06/04 11:19:24;;;;;;;6.55;2.12;;;;;;;25.38;29.70;99855.48;1722883;83;21627;-43
2021/06/04 11:21:55;;;;;;;8.10;2.20;;;;;;;25.35;29.42;99859.17;1743553;82;21478;-43
2021/06/04 11:25:01;;;;;;;4.08;1.70;;;;;;;25.14;29.57;99859.08;1744855;82;21028;-43
2021/06/04 11:27:36;;;;;;;5.80;2.10;;;;;;;24.96;28.23;99863.83;1740419;82;21143;-43
2021/06/04 11:30:10;;;;;;;3.85;2.20;;;;;;;24.78;28.81;99858.04;1664086;83;21551;-43
2021/06/04 11:32:49;;;;;;;4.35;1.98;;;;;;;24.94;29.47;99859.32;1712567;83;20988;-43
2021/06/04 11:35:25;;;;;;;9.45;1.92;;;;;;;25.27;28.71;99848.12;1738069;82;21028;-43
2021/06/04 11:38:20;;;;;;;5.65;1.98;;;;;;;25.74;28.29;99839.80;1750657;82;20984;-43
2021/06/04 11:40:51;;;;;;;3.98;1.70;;;;;;;26.25;28.14;99839.55;1748192;82;21138;-43
2021/06/04 11:43:28;;;;;;;4.53;1.90;;;;;;;26.74;26.80;99830.69;1753678;80;20965;-43
2021/06/04 11:46:18;;;;;;;5.30;1.98;;;;;;;26.89;26.37;99832.92;1766642;81;21073;-43
2021/06/04 11:49:13;;;;;;;4.65;1.98;;;;;;;26.64;26.37;99838.83;1766630;81;21530;-43
2021/06/04 11:51:52;;;;;;;5.92;2.20;;;;;;;26.12;27.52;99831.27;1755580;81;21578;-43
2021/06/04 11:54:33;;;;;;;7.95;2.00;;;;;;;25.86;27.44;99842.34;1766259;81;20921;-43
2021/06/04 11:57:10;;;;;;;6.67;2.10;;;;;;;25.64;28.22;99847.90;1762131;81;21803;-43
2021/06/04 11:59:51;;;;;;;5.40;2.20;;;;;;;25.67;28.06;99837.88;1751282;81;21026;-43
2021/06/04 12:02:32;;;;;;;6.47;2.17;;;;;;;25.76;28.56;99833.17;1760456;81;21088;-43
2021/06/04 12:05:13;;;;;;;4.25;1.95;;;;;;;25.96;28.20;99845.36;1737455;81;21069;-43
2021/06/04 12:07:43;;;;;;;10.43;2.00;;;;;;;26.02;27.31;99844.95;1739466;81;21946;-43
2021/06/04 12:10:12;;;;;;;6.65;2.30;;;;;;;25.84;27.45;99841.43;1766356;81;21038;-43
2021/06/04 12:12:57;;;;;;;5.78;2.00;;;;;;;25.81;28.27;99838.76;1767219;81;21028;-43
2021/06/04 12:15:34;;;;;;;6.08;1.80;;;;;;;26.00;27.72;99841.08;1765076;81;21009;-43
2021/06/04 12:18:34;;;;;;;3.15;1.70;;;;;;;26.51;26.93;99838.78;1740845;81;21021;-43
2021/06/04 12:21:03;;;;;;;5.33;1.87;;;;;;;27.09;25.71;99832.69;1766891;81;21559;-43
2021/06/04 12:23:45;;;;;;;5.40;2.05;;;;;;;27.42;25.66;99840.47;1762592;81;21012;-43
2021/06/04 12:26:33;;;;;;;4.33;1.98;;;;;;;27.34;25.12;99837.83;1771353;81;20894;-43
2021/06/04 12:29:01;;;;;;;5.28;2.58;;;;;;;26.95;25.59;99836.05;1761649;81;21021;-43
2021/06/04 12:31:58;;;;;;;7.37;2.00;;;;;;;26.50;26.00;99842.17;1759072;81;21030;-43
2021/06/04 12:34:42;;;;;;;5.65;1.75;;;;;;;26.34;25.98;99841.00;1765985;81;21739;-43
2021/06/04 12:37:23;;;;;;;2.83;1.75;;;;;;;26.24;26.35;99836.61;1759040;81;21598;-43
2021/06/04 12:40:19;;;;;;;6.37;1.70;;;;;;;26.25;26.63;99833.38;1756560;81;20957;-43
2021/06/04 12:43:23;;;;;;;4.28;1.70;;;;;;;26.24;26.17;99832.44;1755084;81;21022;-43
2021/06/04 12:46:18;;;;;;;4.95;2.08;;;;;;;26.03;26.17;99834.61;1781038;80;21030;-43
2021/06/04 12:48:46;;;;;;;6.33;1.90;;;;;;;25.75;26.48;99818.37;1782178;80;21130;-43
2021/06/04 12:51:16;;;;;;;5.40;1.85;;;;;;;25.69;27.08;99832.66;1727025;80;21432;-43
2021/06/04 12:53:51;;;;;;;5.33;2.05;;;;;;;25.71;27.17;99827.41;1782219;80;20973;-43
2021/06/04 12:56:26;;;;;;;8.28;2.10;;;;;;;25.65;27.65;99837.56;1782007;80;20937;-43
2021/06/04 12:59:13;;;;;;;6.28;2.05;;;;;;;25.80;28.34;99826.87;1782132;80;21012;-43
2021/06/04 13:02:02;;;;;;;6.20;1.82;;;;;;;26.24;27.71;99822.71;1781476;80;21089;-43
2021/06/04 13:04:32;;;;;;;6.28;2.05;;;;;;;26.81;27.44;99819.91;1781310;80;21012;-43
2021/06/04 13:07:02;;;;;;;6.10;1.70;;;;;;;27.52;26.73;99809.41;1777503;80;21109;-43
2021/06/04 13:09:41;;;;;;;5.00;2.00;;;;;;;28.11;25.17;99811.39;1782270;80;21033;-43
2021/06/04 13:12:27;;;;;;;6.62;1.87;;;;;;;28.49;23.82;99808.02;1740305;82;21373;-43
2021/06/04 13:14:56;;;;;;;6.05;1.87;;;;;;;28.69;23.49;99801.90;1743875;82;21530;-43
2021/06/04 13:17:28;;;;;;;9.08;1.92;;;;;;;28.40;24.14;99805.27;1782254;80;20961;-43
2021/06/04 13:20:12;;;;;;;6.05;2.20;;;;;;;28.21;23.41;99806.57;1782290;80;20894;-43
2021/06/04 13:22:43;;;;;;;4.25;1.98;;;;;;;27.92;23.87;99805.06;1763990;80;20882;-43
2021/06/04 13:25:16;;;;;;;;;;;;;;;27.47;25.31;99817.58;1784822;80;21060;-43
2021/06/04 13:27:43;;;;;;;6.45;2.22;;;;;;;27.13;25.17;99809.65;1781622;80;21088;-43
2021/06/04 13:30:14;;;;;;;7.33;1.95;;;;;;;26.85;25.97;99809.40;1777292;80;21493;-43
2021/06/04 13:32:51;;;;;;;5.25;2.08;;;;;;;26.74;27.04;99809.05;1767855;80;21423;-43
2021/06/04 13:35:35;;;;;;;5.08;2.10;;;;;;;26.76;27.27;99807.98;1781955;80;21033;-43
2021/06/04 13:38:06;;;;;;;3.92;1.75;;;;;;;26.86;26.79;99807.39;1766012;80;21593;-43
2021/06/04 13:40:37;;;;;;;3.98;1.90;;;;;;;26.86;26.49;99799.05;1760311;80;21136;-43
2021/06/04 13:43:07;;;;;;;6.03;2.08;;;;;;;26.78;26.02;99805.50;1769115;80;21034;-43
2021/06/04 13:45:38;;;;;;;6.20;2.30;;;;;;;26.70;25.94;99802.86;1700305;82;20969;-44
2021/06/04 13:48:13;;;;;;;7.83;2.10;;;;;;;26.59;26.80;99800.49;1756418;80;21550;-43
2021/06/04 13:50:52;;;;;;;7.10;2.00;;;;;;;26.62;25.94;99800.98;1760794;80;21010;-43
2021/06/04 13:53:21;;;;;;;5.87;2.00;;;;;;;26.59;25.80;99795.55;1756201;80;21841;-43
2021/06/04 13:55:49;;;;;;;5.47;2.10;;;;;;;26.46;26.10;99802.61;1771823;80;21502;-43
2021/06/04 13:58:23;;;;;;;5.95;2.02;;;;;;;26.35;26.53;99803.63;1773126;80;21025;-43
2021/06/04 14:01:23;;;;;;;3.42;1.75;;;;;;;26.24;27.13;99803.25;1772638;80;21080;-43
2021/06/04 14:04:00;;;;;;;5.05;2.00;;;;;;;26.09;27.96;99798.84;1765558;80;21021;-43
2021/06/04 14:06:33;;;;;;;7.40;2.10;;;;;;;25.93;27.27;99810.16;1768448;80;20879;-43
2021/06/04 14:09:15;;;;;;;5.37;1.80;;;;;;;25.71;27.81;99806.58;1765015;80;21602;-43
2021/06/04 14:11:53;;;;;;;6.33;2.30;;;;;;;25.54;28.19;99800.42;1772584;80;21024;-42
2021/06/04 14:14:40;;;;;;;5.17;1.85;;;;;;;25.42;28.77;99800.62;1765798;80;20982;-43
2021/06/04 14:17:36;;;;;;;3.33;2.00;;;;;;;25.35;28.93;99800.88;1759543;80;21029;-43
2021/06/04 14:20:15;;;;;;;6.85;2.10;;;;;;;25.23;28.98;99799.52;1736919;82;21937;-43
2021/06/04 14:22:48;;;;;;;4.20;2.20;;;;;;;25.08;28.75;99799.21;1749960;80;21055;-43
2021/06/04 14:25:20;;;;;;;3.90;1.77;;;;;;;24.97;28.70;99799.59;1762804;80;20926;-43
2021/06/04 14:28:15;;;;;;;6.12;2.33;;;;;;;24.86;28.61;99798.34;1758494;80;21034;-41
2021/06/04 14:30:49;;;;;;;5.70;2.20;;;;;;;24.83;29.38;99790.92;1742986;82;21606;-42
2021/06/04 14:33:24;;;;;;;9.08;2.20;;;;;;;24.78;29.09;99794.26;1749846;80;21158;-42
2021/06/04 14:36:14;;;;;;;8.33;2.25;;;;;;;24.73;28.76;99792.82;1773111;80;21016;-42
2021/06/04 14:38:46;;;;;;;7.65;2.37;;;;;;;24.68;28.75;99796.93;1772460;80;21070;-42
2021/06/04 14:41:24;;;;;;;6.53;1.80;;;;;;;24.66;29.57;99793.81;1750830;80;21060;-42
2021/06/04 14:44:00;;;;;;;6.27;2.10;;;;;;;24.65;29.07;99796.41;1745934;80;21676;-42
2021/06/04 14:46:29;;;;;;;7.33;2.30;;;;;;;24.68;29.50;99788.61;1749465;80;21663;-42
2021/06/04 14:48:57;;;;;;;5.70;1.98;;;;;;;24.74;28.78;99789.44;1749079;82;28621;-42
2021/06/04 14:51:24;;;;;;;4.20;2.05;;;;;;;24.67;28.34;99791.21;1726585;80;21018;-42
2021/06/04 14:53:51;;;;;;;5.00;2.27;;;;;;;24.54;28.79;99794.61;1773862;80;21033;-42
2021/06/04 14:56:17;;;;;;;8.65;2.30;;;;;;;24.37;28.71;99791.75;1741494;80;21044;-42
2021/06/04 14:58:44;;;;;;;4.92;2.20;;;;;;;24.23;29.71;99795.73;1747550;82;21121;-42
2021/06/04 15:01:13;;;;;;;6.67;2.10;;;;;;;24.12;30.06;99798.61;1748544;82;21026;-42
2021/06/04 15:03:40;;;;;;;9.18;2.10;;;;;;;24.02;29.97;99796.92;1748820;82;21038;-42
2021/06/04 15:06:07;;;;;;;5.28;2.40;;;;;;;23.93;29.49;99794.03;1758317;80;20968;-42
2021/06/04 15:08:34;;;;;;;7.05;2.33;;;;;;;23.87;30.44;99795.80;1773803;80;21032;-42
2021/06/04 15:11:03;;;;;;;10.72;2.45;;;;;;;23.81;30.37;99794.95;1773886;80;21144;-42
2021/06/04 15:13:34;;;;;;;5.45;2.10;;;;;;;23.74;30.09;99792.38;1773112;80;21012;-42
2021/06/04 15:16:02;;;;;;;10.28;2.37;;;;;;;23.71;30.72;99791.88;1773591;80;21037;-42
2021/06/04 15:18:32;;;;;;;3.85;2.20;;;;;;;23.72;30.43;99789.25;1774020;80;21553;-42
2021/06/04 15:20:59;;;;;;;7.37;2.65;;;;;;;23.70;30.92;99787.55;1773824;80;21562;-42
2021/06/04 15:23:27;;;;;;;7.37;2.10;;;;;;;23.70;30.96;99794.47;1750472;80;21095;-42
2021/06/04 15:25:54;;;;;;;10.60;2.30;;;;;;;23.73;31.04;99796.35;1734779;82;20906;-42
2021/06/04 15:28:27;;;;;;;4.90;2.08;;;;;;;23.72;30.96;99792.66;1734820;82;21053;-42
2021/06/04 15:30:55;;;;;;;4.80;2.08;;;;;;;23.72;31.07;99782.34;1732906;80;21017;-42
2021/06/04 15:33:23;;;;;;;4.62;2.12;;;;;;;23.72;31.27;99780.20;1755686;80;21029;-41
2021/06/04 15:35:50;;;;;;;6.35;2.30;;;;;;;23.71;30.74;99784.95;1773677;80;21127;-42
2021/06/04 15:38:18;;;;;;;14.30;3.12;;;;;;;23.69;30.74;99783.22;1773634;80;21527;-42
2021/06/04 15:40:47;;;;;;;8.23;2.30;;;;;;;23.67;30.38;99785.64;1774083;80;20949;-42
2021/06/04 15:43:18;;;;;;;13.62;3.20;;;;;;;23.67;30.65;99784.89;1773818;80;21016;-42
2021/06/04 15:45:46;;;;;;;7.67;2.42;;;;;;;23.69;31.15;99787.37;1774111;80;21032;-42
2021/06/04 15:48:13;;;;;;;4.10;1.92;;;;;;;23.75;31.00;99789.78;1774071;80;22054;-42